Time,TemperatureF,DewpointF,PressureIn,WindDirection,WindDirectionDegrees,WindSpeedMPH,WindSpeedGustMPH,Humidity,HourlyPrecipIn,Conditions,Clouds,dailyrainin,SoftwareType,DateUTC
2013-01-09 04:00:00,47.5,40.0,30.19,North,-999,-999.0,9.6,75,0.00,,---,0.00,VWS V14.01,2013-01-09 09:00:00,
2013-01-09 04:06:00,47.5,40.0,30.19,North,-999,-999.0,9.6,75,0.00,,---,0.00,VWS V14.01,2013-01-09 09:06:00,
2013-01-09 06:00:00,47.7,40.8,30.19,North,-999,-999.0,9.6,77,0.00,,---,0.00,VWS V14.01,2013-01-09 11:00:00,
2013-01-09 06:06:00,47.7,40.8,30.19,North,-999,-999.0,9.6,77,0.00,,---,0.00,VWS V14.01,2013-01-09 11:06:00,
2013-01-09 08:00:00,47.5,41.7,30.23,North,-999,-999.0,9.6,80,0.00,,---,0.00,VWS V14.01,2013-01-09 13:00:00,
2013-01-09 08:07:00,47.5,41.7,30.23,North,-999,-999.0,9.6,80,0.00,,---,0.00,VWS V14.01,2013-01-09 13:07:00,
2013-01-09 09:00:00,51.3,44.0,30.24,North,-999,-999.0,9.6,76,0.00,,---,0.00,VWS V14.01,2013-01-09 14:00:00,
2013-01-09 09:07:00,51.3,44.0,30.24,North,-999,-999.0,9.6,76,0.00,,---,0.00,VWS V14.01,2013-01-09 14:07:00,
2013-01-09 10:00:00,55.1,45.1,30.26,North,-999,-999.0,9.6,69,0.00,,---,0.00,VWS V14.01,2013-01-09 15:00:00,
2013-01-09 10:05:00,55.1,45.1,30.26,North,-999,-999.0,9.6,69,0.00,,---,0.00,VWS V14.01,2013-01-09 15:05:00,
2013-01-09 17:00:00,62.3,51.6,30.19,North,-999,-999.0,9.6,68,0.00,,---,0.00,VWS V14.01,2013-01-09 22:00:00,
2013-01-09 17:05:00,62.3,51.6,30.19,North,-999,-999.0,9.6,68,0.00,,---,0.00,VWS V14.01,2013-01-09 22:05:00,
2013-01-09 18:00:00,59.0,50.4,30.20,North,-999,-999.0,9.6,73,0.00,,---,0.00,VWS V14.01,2013-01-09 23:00:00,
2013-01-09 18:05:00,59.0,50.4,30.20,North,-999,-999.0,9.6,73,0.00,,---,0.00,VWS V14.01,2013-01-09 23:05:00,
2013-01-09 19:00:00,57.2,49.7,30.21,North,-999,-999.0,9.6,76,0.00,,---,0.00,VWS V14.01,2013-01-10 00:00:00,
2013-01-09 19:05:00,57.2,49.7,30.21,North,-999,-999.0,9.6,76,0.00,,---,0.00,VWS V14.01,2013-01-10 00:05:00,
2013-01-09 20:00:00,56.0,49.6,30.19,North,-999,-999.0,9.6,79,0.00,,---,0.00,VWS V14.01,2013-01-10 01:00:00,
2013-01-09 20:06:00,56.0,49.6,30.19,North,-999,-999.0,9.6,79,0.00,,---,0.00,VWS V14.01,2013-01-10 01:06:00,
2013-01-09 21:00:00,54.9,48.9,30.20,North,-999,-999.0,9.6,80,0.00,,---,0.00,VWS V14.01,2013-01-10 02:00:00,
2013-01-09 21:06:00,54.9,48.9,30.20,North,-999,-999.0,9.6,80,0.00,,---,0.00,VWS V14.01,2013-01-10 02:06:00,
2013-01-09 22:00:00,54.0,48.3,30.23,North,-999,-999.0,9.6,81,0.00,,---,0.00,VWS V14.01,2013-01-10 03:00:00,
2013-01-09 22:06:00,54.0,48.3,30.23,North,-999,-999.0,9.6,81,0.00,,---,0.00,VWS V14.01,2013-01-10 03:06:00,
2013-01-09 23:00:00,53.5,48.2,30.25,North,-999,-999.0,9.6,82,0.00,,---,0.00,VWS V14.01,2013-01-10 04:00:00,
2013-01-09 23:06:00,53.5,48.2,30.25,North,-999,-999.0,9.6,82,0.00,,---,0.00,VWS V14.01,2013-01-10 04:06:00,